createdAt,value
2019-05-22T00:00:57.577Z,1002.70
2019-05-22T00:01:57.567Z,1002.69
2019-05-22T00:02:57.559Z,1002.73
2019-05-22T00:03:57.555Z,1002.71
2019-05-22T00:04:57.545Z,1002.76
2019-05-22T00:05:57.531Z,1002.78
2019-05-22T00:06:57.513Z,1002.78
2019-05-22T00:07:57.501Z,1002.75
2019-05-22T00:08:57.490Z,1002.73
2019-05-22T00:09:57.478Z,1002.75
2019-05-22T00:10:57.479Z,1002.76
2019-05-22T00:11:57.458Z,1002.77
2019-05-22T00:12:57.447Z,1002.76
2019-05-22T00:13:57.433Z,1002.83
2019-05-22T00:14:57.424Z,1002.83
2019-05-22T00:15:57.426Z,1002.82
2019-05-22T00:16:57.401Z,1002.83
2019-05-22T00:17:57.389Z,1002.84
2019-05-22T00:18:57.378Z,1002.85
2019-05-22T00:19:57.370Z,1002.82
2019-05-22T00:20:57.366Z,1002.75
2019-05-22T00:21:57.348Z,1002.82
2019-05-22T00:22:57.335Z,1002.83
2019-05-22T00:23:57.325Z,1002.79
2019-05-22T00:24:57.315Z,1002.85
2019-05-22T00:25:57.309Z,1002.80
2019-05-22T00:26:57.293Z,1002.84
2019-05-22T00:27:57.282Z,1002.84
2019-05-22T00:28:57.271Z,1002.83
2019-05-22T00:29:57.266Z,1002.83
2019-05-22T00:30:57.262Z,1002.90
2019-05-22T00:31:57.238Z,1002.88
2019-05-22T00:32:57.228Z,1002.89
2019-05-22T00:33:57.216Z,1002.90
2019-05-22T00:34:57.205Z,1002.95
2019-05-22T00:35:57.202Z,1002.98
2019-05-22T00:36:57.183Z,1002.95
2019-05-22T00:37:57.196Z,1002.98
2019-05-22T00:38:57.162Z,1003.02
2019-05-22T00:39:57.152Z,1003.04
2019-05-22T00:40:57.153Z,1003.03
2019-05-22T00:41:57.130Z,1003.02
2019-05-22T00:43:04.238Z,1003.02
2019-05-22T00:43:58.106Z,1003.04
2019-05-22T00:44:57.097Z,1003.04
2019-05-22T00:45:57.117Z,1003.08
2019-05-22T00:46:57.077Z,1003.06
2019-05-22T00:47:57.065Z,1003.06
2019-05-22T00:48:57.057Z,1003.03
2019-05-22T00:49:57.043Z,1003.05
2019-05-22T00:50:57.034Z,1003.04
2019-05-22T00:51:57.031Z,1003.04
2019-05-22T00:52:57.011Z,1003.03
2019-05-22T00:53:57.003Z,1003.04
2019-05-22T00:54:56.994Z,1003.09
2019-05-22T00:55:56.982Z,1003.10
2019-05-22T00:56:56.978Z,1003.10
2019-05-22T00:57:56.958Z,1003.13
2019-05-22T00:58:56.950Z,1003.16
2019-05-22T00:59:56.937Z,1003.20
2019-05-22T01:00:56.944Z,1003.22
2019-05-22T01:01:56.926Z,1003.19
2019-05-22T01:02:56.952Z,1003.21
2019-05-22T01:03:56.893Z,1003.22
2019-05-22T01:04:56.881Z,1003.23
2019-05-22T01:05:56.871Z,1003.20
2019-05-22T01:06:56.874Z,1003.21
2019-05-22T01:07:56.855Z,1003.21
2019-05-22T01:08:56.840Z,1003.21
2019-05-22T01:09:56.829Z,1003.23
2019-05-22T01:10:56.816Z,1003.21
2019-05-22T01:11:56.814Z,1003.21
2019-05-22T01:12:56.797Z,1003.22
2019-05-22T01:13:56.786Z,1003.26
2019-05-22T01:14:56.775Z,1003.21
2019-05-22T01:15:56.763Z,1003.21
2019-05-22T01:16:56.765Z,1003.25
2019-05-22T01:17:56.748Z,1003.27
2019-05-22T01:18:56.731Z,1003.24
2019-05-22T01:19:56.720Z,1003.23
2019-05-22T01:20:56.709Z,1003.22
2019-05-22T01:21:56.708Z,1003.25
2019-05-22T01:22:56.690Z,1003.26
2019-05-22T01:23:56.676Z,1003.28
2019-05-22T01:24:56.668Z,1003.27
2019-05-22T01:25:56.655Z,1003.26
2019-05-22T01:26:56.653Z,1003.31
2019-05-22T01:27:56.644Z,1003.32
2019-05-22T01:28:56.623Z,1003.33
2019-05-22T01:29:56.613Z,1003.33
2019-05-22T01:30:56.601Z,1003.38
2019-05-22T01:31:56.591Z,1003.36
2019-05-22T01:32:56.588Z,1003.40
2019-05-22T01:33:56.580Z,1003.35
2019-05-22T01:34:56.559Z,1003.32
2019-05-22T01:35:56.547Z,1003.37
2019-05-22T01:36:56.594Z,1003.33
2019-05-22T01:37:56.533Z,1003.38
2019-05-22T01:38:56.517Z,1003.36
2019-05-22T01:39:56.503Z,1003.41
2019-05-22T01:40:56.493Z,1003.39
2019-05-22T01:41:56.482Z,1003.40
2019-05-22T01:42:56.480Z,1003.38
2019-05-22T01:43:56.461Z,1003.43
2019-05-22T01:45:05.079Z,1003.39
2019-05-22T01:45:57.437Z,1003.38
2019-05-22T01:46:56.431Z,1003.35
2019-05-22T01:47:56.424Z,1003.45
2019-05-22T01:48:56.407Z,1003.36
2019-05-22T01:49:56.405Z,1003.41
2019-05-22T01:50:56.387Z,1003.43
2019-05-22T01:51:56.378Z,1003.34
2019-05-22T01:52:56.371Z,1003.36
2019-05-22T01:53:56.351Z,1003.38
2019-05-22T01:54:56.341Z,1003.39
2019-05-22T01:55:56.331Z,1003.37
2019-05-22T01:56:56.320Z,1003.30
2019-05-22T01:57:56.342Z,1003.36
2019-05-22T01:58:56.296Z,1003.33
2019-05-22T01:59:56.285Z,1003.32
2019-05-22T02:00:56.274Z,1003.33
2019-05-22T02:01:56.270Z,1003.45
2019-05-22T02:02:56.253Z,1003.41
2019-05-22T02:03:56.250Z,1003.44
2019-05-22T02:04:56.231Z,1003.49
2019-05-22T02:05:56.219Z,1003.54
2019-05-22T02:06:56.208Z,1003.51
2019-05-22T02:07:56.203Z,1003.58
2019-05-22T02:08:56.195Z,1003.58
2019-05-22T02:09:56.180Z,1003.61
2019-05-22T02:10:56.167Z,1003.53
2019-05-22T02:11:56.154Z,1003.56
2019-05-22T02:12:56.144Z,1003.54
2019-05-22T02:13:56.144Z,1003.46
2019-05-22T02:14:56.123Z,1003.44
2019-05-22T02:15:56.111Z,1003.49
2019-05-22T02:16:57.421Z,1003.43
2019-05-22T02:17:56.590Z,1003.46
2019-05-22T02:18:56.086Z,1003.41
2019-05-22T02:19:56.087Z,1003.44
2019-05-22T02:20:56.057Z,1003.47
2019-05-22T02:21:56.046Z,1003.49
2019-05-22T02:22:56.034Z,1003.49
2019-05-22T02:23:56.031Z,1003.45
2019-05-22T02:24:56.018Z,1003.49
2019-05-22T02:25:56.002Z,1003.52
2019-05-22T02:26:55.992Z,1003.52
2019-05-22T02:27:55.980Z,1003.50
2019-05-22T02:28:55.979Z,1003.49
2019-05-22T02:29:55.958Z,1003.50
2019-05-22T02:30:55.949Z,1003.47
2019-05-22T02:31:56.025Z,1003.44
2019-05-22T02:32:55.929Z,1003.45
2019-05-22T02:33:55.951Z,1003.43
2019-05-22T02:34:55.939Z,1003.47
2019-05-22T02:35:55.901Z,1003.46
2019-05-22T02:36:55.884Z,1003.49
2019-05-22T02:37:55.882Z,1003.43
2019-05-22T02:38:55.861Z,1003.45
2019-05-22T02:39:55.868Z,1003.45
2019-05-22T02:40:55.844Z,1003.53
2019-05-22T02:41:55.830Z,1003.51
2019-05-22T02:42:55.819Z,1003.50
2019-05-22T02:43:55.806Z,1003.54
2019-05-22T02:44:55.812Z,1003.54
2019-05-22T02:45:55.783Z,1003.52
2019-05-22T02:46:55.775Z,1003.55
2019-05-22T02:47:55.761Z,1003.54
2019-05-22T02:48:55.759Z,1003.54
2019-05-22T02:49:55.756Z,1003.58
2019-05-22T02:50:55.730Z,1003.59
2019-05-22T02:51:55.719Z,1003.60
2019-05-22T02:52:55.707Z,1003.56
2019-05-22T02:53:55.697Z,1003.60
2019-05-22T02:54:55.693Z,1003.63
2019-05-22T02:55:55.678Z,1003.69
2019-05-22T02:56:55.663Z,1003.70
2019-05-22T02:57:55.651Z,1003.73
2019-05-22T02:58:55.646Z,1003.74
2019-05-22T02:59:55.643Z,1003.71
2019-05-22T03:00:55.624Z,1003.71
2019-05-22T03:01:55.611Z,1003.75
2019-05-22T03:02:55.603Z,1003.70
2019-05-22T03:03:55.587Z,1003.75
2019-05-22T03:04:55.588Z,1003.73
2019-05-22T03:05:55.574Z,1003.74
2019-05-22T03:06:55.555Z,1003.72
2019-05-22T03:07:55.543Z,1003.70
2019-05-22T03:08:55.533Z,1003.76
2019-05-22T03:09:55.573Z,1003.75
2019-05-22T03:10:55.511Z,1003.78
2019-05-22T03:11:55.501Z,1003.77
2019-05-22T03:12:55.491Z,1003.77
2019-05-22T03:13:55.480Z,1003.83
2019-05-22T03:14:55.468Z,1003.86
2019-05-22T03:15:55.469Z,1003.83
2019-05-22T03:16:55.450Z,1003.80
2019-05-22T03:17:55.436Z,1003.87
2019-05-22T03:19:08.182Z,1003.83
2019-05-22T03:19:56.411Z,1003.79
2019-05-22T03:20:55.413Z,1003.79
2019-05-22T03:21:55.394Z,1003.81
2019-05-22T03:22:55.383Z,1003.85
2019-05-22T03:23:55.371Z,1003.77
2019-05-22T03:24:55.373Z,1003.83
2019-05-22T03:25:55.360Z,1003.84
2019-05-22T03:26:55.360Z,1003.89
2019-05-22T03:27:55.325Z,1003.85
2019-05-22T03:28:55.314Z,1003.85
2019-05-22T03:29:55.304Z,1003.86
2019-05-22T03:30:55.304Z,1003.88
2019-05-22T03:31:55.283Z,1003.85
2019-05-22T03:32:55.307Z,1003.85
2019-05-22T03:33:55.264Z,1003.92
2019-05-22T03:34:55.261Z,1003.93
2019-05-22T03:35:55.251Z,1003.90
2019-05-22T03:36:55.334Z,1003.92
2019-05-22T03:37:55.216Z,1003.92
2019-05-22T03:38:55.205Z,1003.93
2019-05-22T03:39:55.194Z,1003.93
2019-05-22T03:40:55.195Z,1003.94
2019-05-22T03:41:55.185Z,1003.88
2019-05-22T03:42:55.162Z,1003.90
2019-05-22T03:43:55.155Z,1003.98
2019-05-22T03:44:55.142Z,1003.95
2019-05-22T03:45:55.159Z,1003.95
2019-05-22T03:46:59.286Z,1003.96
2019-05-22T03:47:55.106Z,1003.97
2019-05-22T03:48:55.096Z,1004.02
2019-05-22T03:49:55.090Z,1003.98
2019-05-22T03:50:55.079Z,1004.07
2019-05-22T03:51:55.073Z,1004.02
2019-05-22T03:52:55.053Z,1004.05
2019-05-22T03:53:55.048Z,1004.03
2019-05-22T03:54:55.030Z,1004.09
2019-05-22T03:55:55.020Z,1004.12
2019-05-22T03:56:55.023Z,1004.07
2019-05-22T03:57:55.003Z,1004.09
2019-05-22T03:58:54.987Z,1004.13
2019-05-22T03:59:54.977Z,1004.10
2019-05-22T04:00:54.970Z,1004.15
2019-05-22T04:01:54.960Z,1004.14
2019-05-22T04:02:54.943Z,1004.13
2019-05-22T04:03:54.935Z,1004.11
2019-05-22T04:04:54.925Z,1004.19
2019-05-22T04:05:54.908Z,1004.19
2019-05-22T04:06:54.908Z,1004.21
2019-05-22T04:07:54.887Z,1004.18
2019-05-22T04:08:54.879Z,1004.15
2019-05-22T04:09:54.870Z,1004.17
2019-05-22T04:10:54.856Z,1004.12
2019-05-22T04:11:54.854Z,1004.16
2019-05-22T04:12:54.832Z,1004.18
2019-05-22T04:13:54.823Z,1004.17
2019-05-22T04:14:54.821Z,1004.19
2019-05-22T04:15:54.798Z,1004.18
2019-05-22T04:16:54.804Z,1004.16
2019-05-22T04:17:54.778Z,1004.20
2019-05-22T04:18:54.768Z,1004.22
2019-05-22T04:19:54.756Z,1004.19
2019-05-22T04:20:54.746Z,1004.20
2019-05-22T04:21:54.752Z,1004.19
2019-05-22T04:22:54.723Z,1004.23
2019-05-22T04:23:54.713Z,1004.25
2019-05-22T04:24:54.700Z,1004.27
2019-05-22T04:25:54.691Z,1004.24
2019-05-22T04:26:54.687Z,1004.24
2019-05-22T04:27:54.672Z,1004.29
2019-05-22T04:28:54.658Z,1004.24
2019-05-22T04:29:54.646Z,1004.29
2019-05-22T04:30:54.638Z,1004.28
2019-05-22T04:31:54.657Z,1004.28
2019-05-22T04:32:54.612Z,1004.26
2019-05-22T04:33:54.604Z,1004.32
2019-05-22T04:34:54.593Z,1004.35
2019-05-22T04:35:54.579Z,1004.33
2019-05-22T04:36:54.579Z,1004.31
2019-05-22T04:37:54.567Z,1004.32
2019-05-22T04:38:54.549Z,1004.30
2019-05-22T04:39:54.539Z,1004.29
2019-05-22T04:40:54.534Z,1004.32
2019-05-22T04:41:54.522Z,1004.29
2019-05-22T04:42:54.516Z,1004.33
2019-05-22T04:43:54.504Z,1004.41
2019-05-22T04:44:54.483Z,1004.31
2019-05-22T04:45:54.473Z,1004.35
2019-05-22T04:46:54.461Z,1004.29
2019-05-22T04:47:54.459Z,1004.33
2019-05-22T04:48:54.439Z,1004.31
2019-05-22T04:50:06.658Z,1004.34
2019-05-22T04:50:55.418Z,1004.35
2019-05-22T04:51:54.410Z,1004.33
2019-05-22T04:52:54.404Z,1004.36
2019-05-22T04:53:54.383Z,1004.38
2019-05-22T04:54:54.375Z,1004.37
2019-05-22T04:55:54.361Z,1004.36
2019-05-22T04:56:54.353Z,1004.41
2019-05-22T04:57:54.350Z,1004.38
2019-05-22T04:58:54.329Z,1004.39
2019-05-22T04:59:54.317Z,1004.39
2019-05-22T05:00:54.308Z,1004.39
2019-05-22T05:01:54.294Z,1004.41
2019-05-22T05:02:54.291Z,1004.39
2019-05-22T05:03:54.301Z,1004.35
2019-05-22T05:04:54.263Z,1004.44
2019-05-22T05:05:54.281Z,1004.42
2019-05-22T05:06:54.244Z,1004.38
2019-05-22T05:07:54.237Z,1004.41
2019-05-22T05:08:54.218Z,1004.37
2019-05-22T05:09:54.213Z,1004.45
2019-05-22T05:10:54.194Z,1004.42
2019-05-22T05:11:54.185Z,1004.48
2019-05-22T05:12:54.181Z,1004.55
2019-05-22T05:13:54.166Z,1004.50
2019-05-22T05:14:54.151Z,1004.52
2019-05-22T05:15:54.139Z,1004.59
2019-05-22T05:16:54.129Z,1004.58
2019-05-22T05:17:54.126Z,1004.52
2019-05-22T05:18:54.163Z,1004.55
2019-05-22T05:19:54.098Z,1004.58
2019-05-22T05:20:54.084Z,1004.60
2019-05-22T05:21:54.072Z,1004.57
2019-05-22T05:22:54.073Z,1004.57
2019-05-22T05:23:54.050Z,1004.53
2019-05-22T05:24:55.840Z,1004.54
2019-05-22T05:25:54.028Z,1004.56
2019-05-22T05:26:54.021Z,1004.56
2019-05-22T05:27:54.309Z,1004.48
2019-05-22T05:28:53.993Z,1004.52
2019-05-22T05:29:53.985Z,1004.54
2019-05-22T05:30:53.983Z,1004.55
2019-05-22T05:31:53.960Z,1004.58
2019-05-22T05:32:53.948Z,1004.58
2019-05-22T05:33:53.944Z,1004.57
2019-05-22T05:34:53.931Z,1004.59
2019-05-22T05:35:53.913Z,1004.61
2019-05-22T05:36:53.903Z,1004.60
2019-05-22T05:37:53.891Z,1004.58
2019-05-22T05:38:53.889Z,1004.67
2019-05-22T05:39:53.872Z,1004.61
2019-05-22T05:40:53.860Z,1004.58
2019-05-22T05:41:53.849Z,1004.58
2019-05-22T05:42:53.836Z,1004.63
2019-05-22T05:43:53.834Z,1004.55
2019-05-22T05:44:53.814Z,1004.61
2019-05-22T05:45:53.805Z,1004.65
2019-05-22T05:46:53.790Z,1004.55
2019-05-22T05:47:53.781Z,1004.59
2019-05-22T05:48:53.777Z,1004.61
2019-05-22T05:49:53.756Z,1004.59
2019-05-22T05:50:53.745Z,1004.62
2019-05-22T05:51:53.736Z,1004.61
2019-05-22T05:52:53.736Z,1004.58
2019-05-22T05:53:53.719Z,1004.59
2019-05-22T05:54:53.703Z,1004.60
2019-05-22T05:55:53.694Z,1004.59
2019-05-22T05:56:53.702Z,1004.60
2019-05-22T05:57:53.675Z,1004.60
2019-05-22T05:58:53.666Z,1004.58
2019-05-22T05:59:53.645Z,1004.63
2019-05-22T06:00:53.643Z,1004.66
2019-05-22T06:01:53.636Z,1004.59
2019-05-22T06:02:56.545Z,1004.65
2019-05-22T06:03:53.612Z,1004.71
2019-05-22T06:04:53.590Z,1004.68
2019-05-22T06:05:53.580Z,1004.79
2019-05-22T06:06:53.566Z,1004.74
2019-05-22T06:07:53.557Z,1004.76
2019-05-22T06:08:53.553Z,1004.79
2019-05-22T06:09:53.534Z,1004.79
2019-05-22T06:10:53.522Z,1004.74
2019-05-22T06:11:53.511Z,1004.74
2019-05-22T06:12:53.500Z,1004.78
2019-05-22T06:13:53.497Z,1004.78
2019-05-22T06:14:53.478Z,1004.83
2019-05-22T06:15:53.469Z,1004.75
2019-05-22T06:16:53.455Z,1004.83
2019-05-22T06:17:53.443Z,1004.80
2019-05-22T06:18:56.965Z,1004.83
2019-05-22T06:19:53.434Z,1004.89
2019-05-22T06:21:03.366Z,1004.90
2019-05-22T06:21:54.402Z,1004.90
2019-05-22T06:22:53.389Z,1005.00
2019-05-22T06:23:53.375Z,1004.95
2019-05-22T06:24:53.373Z,1005.02
2019-05-22T06:25:53.354Z,1005.02
2019-05-22T06:26:53.342Z,1005.14
2019-05-22T06:27:53.337Z,1005.14
2019-05-22T06:28:53.321Z,1005.12
2019-05-22T06:29:53.322Z,1005.02
2019-05-22T06:30:53.298Z,1005.17
2019-05-22T06:31:53.287Z,1005.12
2019-05-22T06:32:53.277Z,1005.13
2019-05-22T06:33:53.266Z,1005.17
2019-05-22T06:34:53.302Z,1005.18
2019-05-22T06:35:53.244Z,1005.19
2019-05-22T06:36:53.234Z,1005.12
2019-05-22T06:37:53.224Z,1005.17
2019-05-22T06:38:53.210Z,1005.12
2019-05-22T06:39:53.209Z,1005.12
2019-05-22T06:40:53.191Z,1005.07
2019-05-22T06:41:53.180Z,1005.06
2019-05-22T06:42:53.173Z,1005.10
2019-05-22T06:43:53.158Z,1005.12
2019-05-22T06:44:53.158Z,1005.14
2019-05-22T06:45:53.136Z,1005.12
2019-05-22T06:46:53.126Z,1005.20
2019-05-22T06:47:53.114Z,1005.21
2019-05-22T06:48:53.105Z,1005.22
2019-05-22T06:49:53.409Z,1005.21
2019-05-22T06:50:53.083Z,1005.26
2019-05-22T06:51:53.070Z,1005.22
2019-05-22T06:53:08.926Z,1005.25
2019-05-22T06:53:54.050Z,1005.27
2019-05-22T06:54:53.044Z,1005.27
2019-05-22T06:55:53.036Z,1005.24
2019-05-22T06:56:53.018Z,1005.22
2019-05-22T06:57:53.007Z,1005.30
2019-05-22T06:58:52.995Z,1005.34
2019-05-22T07:00:11.425Z,1005.29
2019-05-22T07:00:53.983Z,1005.30
2019-05-22T07:02:01.046Z,1005.23
2019-05-22T07:02:53.954Z,1005.37
2019-05-22T07:03:52.941Z,1005.38
2019-05-22T07:04:52.930Z,1005.36
2019-05-22T07:05:52.929Z,1005.40
2019-05-22T07:06:52.925Z,1005.36
2019-05-22T07:07:52.903Z,1005.37
2019-05-22T07:08:52.888Z,1005.39
2019-05-22T07:09:52.880Z,1005.41
2019-05-22T07:10:52.876Z,1005.41
2019-05-22T07:11:52.859Z,1005.45
2019-05-22T07:12:52.852Z,1005.44
2019-05-22T07:13:52.835Z,1005.44
2019-05-22T07:14:52.825Z,1005.45
2019-05-22T07:15:52.822Z,1005.46
2019-05-22T07:16:52.804Z,1005.45
2019-05-22T07:17:52.794Z,1005.49
2019-05-22T07:18:52.788Z,1005.42
2019-05-22T07:19:52.775Z,1005.45
2019-05-22T07:20:53.217Z,1005.46
2019-05-22T07:21:52.749Z,1005.51
2019-05-22T07:22:52.737Z,1005.46
2019-05-22T07:23:52.728Z,1005.39
2019-05-22T07:24:52.716Z,1005.51
2019-05-22T07:25:52.738Z,1005.51
2019-05-22T07:26:52.703Z,1005.45
2019-05-22T07:27:52.684Z,1005.50
2019-05-22T07:28:52.673Z,1005.54
2019-05-22T07:29:52.661Z,1005.55
2019-05-22T07:30:52.691Z,1005.57
2019-05-22T07:31:52.642Z,1005.57
2019-05-22T07:32:52.640Z,1005.57
2019-05-22T07:33:52.618Z,1005.57
2019-05-22T07:34:52.607Z,1005.63
2019-05-22T07:36:08.685Z,1005.60
2019-05-22T07:36:53.586Z,1005.61
2019-05-22T07:37:52.575Z,1005.60
2019-05-22T07:38:52.567Z,1005.61
2019-05-22T07:39:52.552Z,1005.60
2019-05-22T07:40:52.553Z,1005.69
2019-05-22T07:41:52.532Z,1005.64
2019-05-22T07:42:52.523Z,1005.70
2019-05-22T07:43:52.510Z,1005.77
2019-05-22T07:44:52.498Z,1005.78
2019-05-22T07:45:52.539Z,1005.85
2019-05-22T07:46:52.479Z,1005.78
2019-05-22T07:47:52.643Z,1005.81
2019-05-22T07:48:52.455Z,1005.84
2019-05-22T07:49:52.451Z,1005.81
2019-05-22T07:50:52.435Z,1005.84
2019-05-22T07:52:00.574Z,1005.76
2019-05-22T07:52:53.418Z,1005.76
2019-05-22T07:53:52.405Z,1005.75
2019-05-22T07:54:52.393Z,1005.72
2019-05-22T07:55:52.389Z,1005.74
2019-05-22T07:56:52.383Z,1005.76
2019-05-22T07:57:52.358Z,1005.71
2019-05-22T07:58:52.351Z,1005.76
2019-05-22T07:59:52.341Z,1005.76
2019-05-22T08:00:52.328Z,1005.76
2019-05-22T08:01:52.324Z,1005.82
2019-05-22T08:02:52.318Z,1005.78
2019-05-22T08:03:52.296Z,1005.79
2019-05-22T08:04:52.285Z,1005.85
2019-05-22T08:05:52.278Z,1005.77
2019-05-22T08:06:52.272Z,1005.71
2019-05-22T08:07:52.257Z,1005.77
2019-05-22T08:08:52.243Z,1005.83
2019-05-22T08:09:52.233Z,1005.84
2019-05-22T08:10:52.226Z,1005.86
2019-05-22T08:11:52.220Z,1005.82
2019-05-22T08:12:52.201Z,1005.84
2019-05-22T08:13:52.195Z,1005.87
2019-05-22T08:14:52.180Z,1005.85
2019-05-22T08:15:52.172Z,1005.82
2019-05-22T08:16:52.165Z,1005.85
2019-05-22T08:17:52.146Z,1005.84
2019-05-22T08:18:52.139Z,1005.80
2019-05-22T08:19:52.124Z,1005.77
2019-05-22T08:20:52.114Z,1005.80
2019-05-22T08:22:06.006Z,1005.86
2019-05-22T08:22:53.090Z,1005.77
2019-05-22T08:23:52.087Z,1005.81
2019-05-22T08:24:52.072Z,1005.77
2019-05-22T08:25:52.064Z,1005.80
2019-05-22T08:26:54.815Z,1005.78
2019-05-22T08:27:52.036Z,1005.77
2019-05-22T08:28:52.040Z,1005.82
2019-05-22T08:29:52.016Z,1005.80
2019-05-22T08:30:52.004Z,1005.83
2019-05-22T08:31:52.004Z,1005.83
2019-05-22T08:32:51.984Z,1005.89
2019-05-22T08:33:51.976Z,1005.83
2019-05-22T08:34:51.966Z,1005.89
2019-05-22T08:35:51.949Z,1005.90
2019-05-22T08:36:51.948Z,1005.93
2019-05-22T08:37:51.931Z,1005.97
2019-05-22T08:38:51.919Z,1006.01
2019-05-22T08:39:51.911Z,1005.96
2019-05-22T08:40:51.899Z,1005.97
2019-05-22T08:41:51.893Z,1005.98
2019-05-22T08:42:51.875Z,1006.02
2019-05-22T08:44:14.670Z,1006.01
2019-05-22T08:44:52.854Z,1006.04
2019-05-22T08:45:51.842Z,1006.03
2019-05-22T08:46:51.887Z,1006.04
2019-05-22T08:47:51.821Z,1006.04
2019-05-22T08:48:51.913Z,1006.04
2019-05-22T08:49:51.801Z,1006.05
2019-05-22T08:50:51.796Z,1006.03
2019-05-22T08:51:51.789Z,1006.05
2019-05-22T08:52:51.768Z,1006.04
2019-05-22T08:53:51.755Z,1006.05
2019-05-22T08:54:51.744Z,1006.06
2019-05-22T08:55:51.737Z,1006.10
2019-05-22T08:56:51.751Z,1006.09
2019-05-22T08:57:51.719Z,1006.14
2019-05-22T08:58:51.702Z,1006.16
2019-05-22T08:59:51.692Z,1006.19
2019-05-22T09:00:51.678Z,1006.20
2019-05-22T09:01:51.669Z,1006.20
2019-05-22T09:02:51.664Z,1006.18
2019-05-22T09:03:51.815Z,1006.23
2019-05-22T09:04:51.700Z,1006.23
2019-05-22T09:05:52.028Z,1006.26
2019-05-22T09:06:51.621Z,1006.24
2019-05-22T09:07:51.634Z,1006.33
2019-05-22T09:08:51.596Z,1006.29
2019-05-22T09:09:51.581Z,1006.29
2019-05-22T09:10:51.572Z,1006.30
2019-05-22T09:11:51.560Z,1006.31
2019-05-22T09:12:51.556Z,1006.29
2019-05-22T09:13:51.536Z,1006.39
2019-05-22T09:14:51.527Z,1006.34
2019-05-22T09:15:51.514Z,1006.35
2019-05-22T09:16:51.505Z,1006.37
2019-05-22T09:17:51.500Z,1006.40
2019-05-22T09:18:51.603Z,1006.42
2019-05-22T09:19:51.471Z,1006.43
2019-05-22T09:20:51.462Z,1006.43
2019-05-22T09:21:51.446Z,1006.45
2019-05-22T09:22:51.444Z,1006.38
2019-05-22T09:23:51.424Z,1006.42
2019-05-22T09:24:51.418Z,1006.41
2019-05-22T09:25:51.401Z,1006.39
2019-05-22T09:26:51.390Z,1006.42
2019-05-22T09:27:51.387Z,1006.42
2019-05-22T09:28:51.368Z,1006.46
2019-05-22T09:29:51.364Z,1006.44
2019-05-22T09:30:51.346Z,1006.42
2019-05-22T09:31:51.361Z,1006.49
2019-05-22T09:32:51.332Z,1006.47
2019-05-22T09:33:51.349Z,1006.43
2019-05-22T09:34:51.302Z,1006.42
2019-05-22T09:35:51.299Z,1006.41
2019-05-22T09:36:51.318Z,1006.40
2019-05-22T09:37:51.298Z,1006.42
2019-05-22T09:38:52.370Z,1006.37
2019-05-22T09:39:51.248Z,1006.36
2019-05-22T09:40:51.235Z,1006.41
2019-05-22T09:41:51.241Z,1006.37
2019-05-22T09:42:51.211Z,1006.38
2019-05-22T09:43:51.212Z,1006.38
2019-05-22T09:44:51.190Z,1006.39
2019-05-22T09:45:51.179Z,1006.41
2019-05-22T09:46:51.169Z,1006.43
2019-05-22T09:47:51.161Z,1006.41
2019-05-22T09:48:51.188Z,1006.44
2019-05-22T09:49:51.190Z,1006.43
2019-05-22T09:50:51.174Z,1006.34
2019-05-22T09:51:51.112Z,1006.39
2019-05-22T09:52:57.690Z,1006.37
2019-05-22T09:53:52.103Z,1006.40
2019-05-22T09:54:51.080Z,1006.40
2019-05-22T09:55:51.065Z,1006.41
2019-05-22T09:56:51.054Z,1006.48
2019-05-22T09:57:51.055Z,1006.41
2019-05-22T09:58:51.049Z,1006.41
2019-05-22T09:59:51.020Z,1006.44
2019-05-22T10:00:51.241Z,1006.44
2019-05-22T10:01:51.000Z,1006.41
2019-05-22T10:02:50.990Z,1006.48
2019-05-22T10:03:50.991Z,1006.48
2019-05-22T10:04:50.965Z,1006.58
2019-05-22T10:05:51.024Z,1006.51
2019-05-22T10:06:50.950Z,1006.47
2019-05-22T10:08:00.421Z,1006.59
2019-05-22T10:08:51.934Z,1006.61
2019-05-22T10:09:50.912Z,1006.60
2019-05-22T10:10:50.904Z,1006.63
2019-05-22T10:11:50.893Z,1006.58
2019-05-22T10:12:50.898Z,1006.60
2019-05-22T10:13:50.886Z,1006.63
2019-05-22T10:14:51.180Z,1006.57
2019-05-22T10:15:50.845Z,1006.64
2019-05-22T10:16:50.837Z,1006.67
2019-05-22T10:17:50.832Z,1006.73
2019-05-22T10:18:53.276Z,1006.69
2019-05-22T10:19:50.805Z,1006.68
2019-05-22T10:20:50.791Z,1006.72
2019-05-22T10:21:50.779Z,1006.78
2019-05-22T10:22:50.768Z,1006.71
2019-05-22T10:23:50.770Z,1006.79
2019-05-22T10:24:51.961Z,1006.76
2019-05-22T10:25:50.734Z,1006.76
2019-05-22T10:26:50.724Z,1006.80
2019-05-22T10:27:50.747Z,1006.81
2019-05-22T10:28:50.711Z,1006.81
2019-05-22T10:29:50.689Z,1006.79
2019-05-22T10:30:50.743Z,1006.81
2019-05-22T10:31:50.666Z,1006.88
2019-05-22T10:32:50.702Z,1006.87
2019-05-22T10:33:52.129Z,1006.90
2019-05-22T10:34:50.645Z,1006.89
2019-05-22T10:35:50.638Z,1006.87
2019-05-22T10:36:50.610Z,1006.89
2019-05-22T10:37:50.599Z,1006.87
2019-05-22T10:38:50.600Z,1006.88
2019-05-22T10:39:50.579Z,1006.89
2019-05-22T10:40:50.651Z,1006.89
2019-05-22T10:41:50.555Z,1006.88
2019-05-22T10:42:50.549Z,1006.89
2019-05-22T10:43:50.546Z,1006.93
2019-05-22T10:44:50.522Z,1006.83
2019-05-22T10:45:50.517Z,1006.89
2019-05-22T10:46:50.499Z,1006.90
2019-05-22T10:47:50.490Z,1006.91
2019-05-22T10:48:50.523Z,1006.90
2019-05-22T10:49:50.472Z,1006.95
2019-05-22T10:50:50.459Z,1006.94
2019-05-22T10:51:50.451Z,1006.92
2019-05-22T10:52:54.092Z,1006.91
2019-05-22T10:53:50.420Z,1006.98
2019-05-22T10:54:50.423Z,1006.95
2019-05-22T10:55:50.417Z,1007.00
2019-05-22T10:56:50.388Z,1006.98
2019-05-22T10:57:50.379Z,1007.02
2019-05-22T10:58:50.364Z,1007.03
2019-05-22T10:59:50.365Z,1007.08
2019-05-22T11:00:50.343Z,1007.11
2019-05-22T11:01:50.333Z,1007.10
2019-05-22T11:02:50.325Z,1007.16
2019-05-22T11:03:50.311Z,1007.12
2019-05-22T11:04:50.309Z,1007.13
2019-05-22T11:06:05.714Z,1007.17
2019-05-22T11:06:51.276Z,1007.15
2019-05-22T11:07:50.270Z,1007.15
2019-05-22T11:08:50.253Z,1007.14
2019-05-22T11:09:50.249Z,1007.17
2019-05-22T11:10:50.251Z,1007.16
2019-05-22T11:11:50.225Z,1007.21
2019-05-22T11:12:50.212Z,1007.13
2019-05-22T11:14:00.846Z,1007.16
2019-05-22T11:14:51.195Z,1007.17
2019-05-22T11:15:50.183Z,1007.19
2019-05-22T11:16:50.162Z,1007.28
2019-05-22T11:17:50.153Z,1007.25
2019-05-22T11:18:50.139Z,1007.17
2019-05-22T11:19:50.138Z,1007.18
2019-05-22T11:20:50.118Z,1007.18
2019-05-22T11:21:50.108Z,1007.18
2019-05-22T11:22:50.097Z,1007.17
2019-05-22T11:23:52.448Z,1007.17
2019-05-22T11:24:50.081Z,1007.21
2019-05-22T11:25:50.062Z,1007.21
2019-05-22T11:26:50.050Z,1007.20
2019-05-22T11:27:50.039Z,1007.20
2019-05-22T11:28:50.027Z,1007.21
2019-05-22T11:29:50.028Z,1007.21
2019-05-22T11:30:50.016Z,1007.21
2019-05-22T11:31:49.994Z,1007.25
2019-05-22T11:32:49.985Z,1007.25
2019-05-22T11:33:49.971Z,1007.26
2019-05-22T11:34:49.967Z,1007.29
2019-05-22T11:35:49.948Z,1007.28
2019-05-22T11:36:49.952Z,1007.30
2019-05-22T11:37:49.929Z,1007.31
2019-05-22T11:38:49.916Z,1007.29
2019-05-22T11:39:49.912Z,1007.29
2019-05-22T11:40:49.895Z,1007.34
2019-05-22T11:41:49.883Z,1007.35
2019-05-22T11:42:49.872Z,1007.36
2019-05-22T11:43:49.859Z,1007.39
2019-05-22T11:44:49.856Z,1007.38
2019-05-22T11:45:49.836Z,1007.36
2019-05-22T11:46:49.827Z,1007.32
2019-05-22T11:47:49.815Z,1007.38
2019-05-22T11:48:49.813Z,1007.39
2019-05-22T11:49:49.803Z,1007.33
2019-05-22T11:50:49.783Z,1007.37
2019-05-22T11:51:49.771Z,1007.38
2019-05-22T11:52:49.762Z,1007.42
2019-05-22T11:53:49.753Z,1007.40
2019-05-22T11:54:49.745Z,1007.44
2019-05-22T11:55:49.725Z,1007.42
2019-05-22T11:56:49.714Z,1007.38
2019-05-22T11:57:49.705Z,1007.37
2019-05-22T11:58:49.701Z,1007.41
2019-05-22T11:59:49.690Z,1007.38
2019-05-22T12:00:49.670Z,1007.47
2019-05-22T12:01:49.661Z,1007.40
2019-05-22T12:02:49.659Z,1007.45
2019-05-22T12:03:49.636Z,1007.38
2019-05-22T12:04:49.636Z,1007.45
2019-05-22T12:05:49.613Z,1007.42